Debert, Canada
Current Conditions -  °F | °C
As of 9:39 PM on Sunday 23 Nov 2014 (Local Time) from CYHZ Reporting Station
Clear Clear  
Wind Chill: 30°   Ceiling: Unl
Heat Index: 36°   Visibility: 15mi
Dew Point: 32°   Wind: 7mph
Humidity: 87%   Direction: 200°SSW
Pressure: 30.16"   Gusts: NA
Location:  45.43°N, 63.45°W
Report Text: CYHZ 240139Z 20006KT 15SM SKC 02/M00 A3016 RMK SLP220
Loading
Personal Weather Stations






























Interactive Weather Map New forecast layout! Learn more

10-Day Weather Forecast

Advertisements
Track Severe Weather on mobile